sensor_id;sensor_type;location;lat;lon;timestamp;pressure;altitude;pressure_sealevel;temperature;humidity
59608;BME280;45426;44.726;10.390;2023-04-15T00:00:41;99371.81;;;10.75;100.00
59608;BME280;45426;44.726;10.390;2023-04-15T00:03:07;99369.91;;;10.56;100.00
59608;BME280;45426;44.726;10.390;2023-04-15T00:05:33;99374.56;;;10.56;100.00
59608;BME280;45426;44.726;10.390;2023-04-15T00:07:59;99370.13;;;11.10;100.00
59608;BME280;45426;44.726;10.390;2023-04-15T00:10:26;99370.53;;;10.69;100.00
59608;BME280;45426;44.726;10.390;2023-04-15T00:12:51;99366.47;;;10.79;100.00
59608;BME280;45426;44.726;10.390;2023-04-15T00:15:17;99372.63;;;10.56;100.00
59608;BME280;45426;44.726;10.390;2023-04-15T00:17:43;99368.34;;;10.98;100.00
59608;BME280;45426;44.726;10.390;2023-04-15T00:20:08;99368.75;;;11.19;100.00
59608;BME280;45426;44.726;10.390;2023-04-15T00:22:34;99365.34;;;11.03;100.00
59608;BME280;45426;44.726;10.390;2023-04-15T00:25:00;99367.03;;;10.68;100.00
59608;BME280;45426;44.726;10.390;2023-04-15T00:27:26;99368.41;;;10.78;100.00
59608;BME280;45426;44.726;10.390;2023-04-15T00:29:51;99370.31;;;10.58;100.00
59608;BME280;45426;44.726;10.390;2023-04-15T00:32:17;99369.16;;;10.79;100.00
59608;BME280;45426;44.726;10.390;2023-04-15T00:34:42;99368.00;;;9.70;100.00
59608;BME280;45426;44.726;10.390;2023-04-15T00:37:08;99364.38;;;9.46;100.00
59608;BME280;45426;44.726;10.390;2023-04-15T00:39:34;99351.72;;;9.86;100.00
59608;BME280;45426;44.726;10.390;2023-04-15T00:42:01;99356.56;;;10.12;100.00
59608;BME280;45426;44.726;10.390;2023-04-15T00:44:26;99346.69;;;10.04;100.00
59608;BME280;45426;44.726;10.390;2023-04-15T00:46:52;99347.84;;;10.03;100.00
59608;BME280;45426;44.726;10.390;2023-04-15T00:49:18;99352.44;;;10.38;100.00
59608;BME280;45426;44.726;10.390;2023-04-15T00:51:44;99354.75;;;9.49;100.00
59608;BME280;45426;44.726;10.390;2023-04-15T00:54:09;99358.88;;;8.54;100.00
59608;BME280;45426;44.726;10.390;2023-04-15T00:56:36;99367.06;;;8.70;100.00
59608;BME280;45426;44.726;10.390;2023-04-15T00:59:03;99354.22;;;9.11;100.00
59608;BME280;45426;44.726;10.390;2023-04-15T01:01:30;99352.91;;;9.21;100.00
59608;BME280;45426;44.726;10.390;2023-04-15T01:03:56;99356.78;;;8.92;100.00
59608;BME280;45426;44.726;10.390;2023-04-15T01:06:23;99362.56;;;8.90;100.00
59608;BME280;45426;44.726;10.390;2023-04-15T01:08:49;99352.22;;;9.24;100.00
59608;BME280;45426;44.726;10.390;2023-04-15T01:11:15;99353.81;;;8.97;100.00
59608;BME280;45426;44.726;10.390;2023-04-15T01:13:41;99365.44;;;7.76;100.00
59608;BME280;45426;44.726;10.390;2023-04-15T01:16:07;99374.22;;;7.73;100.00
59608;BME280;45426;44.726;10.390;2023-04-15T01:18:34;99379.81;;;7.18;100.00
59608;BME280;45426;44.726;10.390;2023-04-15T01:21:00;99367.03;;;7.89;100.00
59608;BME280;45426;44.726;10.390;2023-04-15T01:23:28;99369.78;;;8.58;100.00
59608;BME280;45426;44.726;10.390;2023-04-15T01:25:55;99370.59;;;8.87;100.00
59608;BME280;45426;44.726;10.390;2023-04-15T01:28:21;99367.13;;;9.18;100.00
59608;BME280;45426;44.726;10.390;2023-04-15T01:30:47;99360.97;;;9.33;100.00
59608;BME280;45426;44.726;10.390;2023-04-15T01:33:12;99366.97;;;9.27;100.00
59608;BME280;45426;44.726;10.390;2023-04-15T01:35:38;99365.91;;;8.71;100.00
59608;BME280;45426;44.726;10.390;2023-04-15T01:38:08;99377.97;;;8.46;100.00
59608;BME280;45426;44.726;10.390;2023-04-15T01:40:34;99374.28;;;8.66;100.00
59608;BME280;45426;44.726;10.390;2023-04-15T01:43:00;99361.63;;;7.89;100.00
59608;BME280;45426;44.726;10.390;2023-04-15T01:45:26;99366.00;;;7.82;100.00
59608;BME280;45426;44.726;10.390;2023-04-15T01:47:52;99353.84;;;7.63;100.00
59608;BME280;45426;44.726;10.390;2023-04-15T01:50:17;99360.34;;;7.87;100.00
59608;BME280;45426;44.726;10.390;2023-04-15T01:52:43;99357.88;;;8.47;100.00
59608;BME280;45426;44.726;10.390;2023-04-15T01:55:10;99361.59;;;7.65;100.00
59608;BME280;45426;44.726;10.390;2023-04-15T01:57:35;99357.44;;;7.55;100.00
59608;BME280;45426;44.726;10.390;2023-04-15T02:00:01;99358.41;;;7.13;100.00
59608;BME280;45426;44.726;10.390;2023-04-15T02:02:28;99367.88;;;7.19;100.00
59608;BME280;45426;44.726;10.390;2023-04-15T02:04:55;99363.59;;;7.18;100.00
59608;BME280;45426;44.726;10.390;2023-04-15T02:07:20;99350.56;;;7.33;100.00
59608;BME280;45426;44.726;10.390;2023-04-15T02:09:46;99348.53;;;7.42;100.00
59608;BME280;45426;44.726;10.390;2023-04-15T02:12:12;99347.88;;;7.45;100.00
59608;BME280;45426;44.726;10.390;2023-04-15T02:14:37;99341.91;;;7.64;100.00
59608;BME280;45426;44.726;10.390;2023-04-15T02:17:03;99349.34;;;7.67;100.00
59608;BME280;45426;44.726;10.390;2023-04-15T02:19:33;99351.53;;;7.16;100.00
59608;BME280;45426;44.726;10.390;2023-04-15T02:21:59;99345.16;;;7.21;100.00
59608;BME280;45426;44.726;10.390;2023-04-15T02:24:26;99347.75;;;7.78;100.00
59608;BME280;45426;44.726;10.390;2023-04-15T02:26:52;99343.59;;;7.56;100.00
59608;BME280;45426;44.726;10.390;2023-04-15T02:29:17;99345.50;;;7.44;100.00
59608;BME280;45426;44.726;10.390;2023-04-15T02:31:43;99344.22;;;8.03;100.00
59608;BME280;45426;44.726;10.390;2023-04-15T02:34:09;99345.59;;;7.72;100.00
59608;BME280;45426;44.726;10.390;2023-04-15T02:36:34;99356.19;;;7.89;100.00
59608;BME280;45426;44.726;10.390;2023-04-15T02:39:00;99346.44;;;8.25;100.00
59608;BME280;45426;44.726;10.390;2023-04-15T02:41:25;99354.28;;;7.90;100.00
59608;BME280;45426;44.726;10.390;2023-04-15T02:43:53;99350.31;;;7.13;100.00
59608;BME280;45426;44.726;10.390;2023-04-15T02:46:18;99353.94;;;7.42;100.00
59608;BME280;45426;44.726;10.390;2023-04-15T02:48:43;99352.16;;;7.71;100.00
59608;BME280;45426;44.726;10.390;2023-04-15T02:51:13;99349.66;;;7.53;100.00
59608;BME280;45426;44.726;10.390;2023-04-15T02:53:39;99348.75;;;8.51;100.00
59608;BME280;45426;44.726;10.390;2023-04-15T02:56:05;99345.50;;;8.46;100.00
59608;BME280;45426;44.726;10.390;2023-04-15T02:58:31;99348.34;;;8.65;100.00
59608;BME280;45426;44.726;10.390;2023-04-15T03:00:58;99353.16;;;7.66;100.00
59608;BME280;45426;44.726;10.390;2023-04-15T03:03:24;99359.03;;;7.56;100.00
59608;BME280;45426;44.726;10.390;2023-04-15T03:05:50;99357.78;;;6.83;100.00
59608;BME280;45426;44.726;10.390;2023-04-15T03:08:16;99361.59;;;7.40;100.00
59608;BME280;45426;44.726;10.390;2023-04-15T03:10:41;99362.84;;;6.85;100.00
59608;BME280;45426;44.726;10.390;2023-04-15T03:13:07;99361.00;;;6.76;100.00
59608;BME280;45426;44.726;10.390;2023-04-15T03:15:32;99366.31;;;7.31;100.00
59608;BME280;45426;44.726;10.390;2023-04-15T03:17:58;99362.38;;;7.77;100.00
59608;BME280;45426;44.726;10.390;2023-04-15T03:20:23;99363.06;;;7.87;100.00
59608;BME280;45426;44.726;10.390;2023-04-15T03:22:49;99369.34;;;8.15;100.00
59608;BME280;45426;44.726;10.390;2023-04-15T03:25:14;99375.47;;;7.88;100.00
59608;BME280;45426;44.726;10.390;2023-04-15T03:27:40;99376.44;;;7.22;100.00
59608;BME280;45426;44.726;10.390;2023-04-15T03:30:06;99365.16;;;6.74;100.00
59608;BME280;45426;44.726;10.390;2023-04-15T03:32:33;99373.75;;;6.55;100.00
59608;BME280;45426;44.726;10.390;2023-04-15T03:34:58;99368.31;;;6.76;100.00
59608;BME280;45426;44.726;10.390;2023-04-15T03:37:23;99367.59;;;7.58;100.00
59608;BME280;45426;44.726;10.390;2023-04-15T03:39:49;99368.41;;;6.67;100.00
59608;BME280;45426;44.726;10.390;2023-04-15T03:42:15;99367.25;;;7.72;100.00
59608;BME280;45426;44.726;10.390;2023-04-15T03:44:40;99370.97;;;7.43;100.00
59608;BME280;45426;44.726;10.390;2023-04-15T03:47:06;99373.19;;;7.77;100.00
59608;BME280;45426;44.726;10.390;2023-04-15T03:49:31;99372.09;;;7.54;100.00
59608;BME280;45426;44.726;10.390;2023-04-15T03:51:57;99379.00;;;7.18;100.00
59608;BME280;45426;44.726;10.390;2023-04-15T03:54:23;99384.16;;;6.98;100.00
59608;BME280;45426;44.726;10.390;2023-04-15T03:56:49;99387.97;;;7.43;100.00
59608;BME280;45426;44.726;10.390;2023-04-15T03:59:15;99384.56;;;7.34;100.00
59608;BME280;45426;44.726;10.390;2023-04-15T04:01:40;99388.88;;;7.72;100.00
59608;BME280;45426;44.726;10.390;2023-04-15T04:04:06;99391.69;;;7.51;100.00
59608;BME280;45426;44.726;10.390;2023-04-15T04:06:31;99393.09;;;6.57;100.00
59608;BME280;45426;44.726;10.390;2023-04-15T04:08:57;99396.00;;;6.31;100.00
59608;BME280;45426;44.726;10.390;2023-04-15T04:11:22;99407.91;;;6.00;100.00
59608;BME280;45426;44.726;10.390;2023-04-15T04:13:47;99403.13;;;6.06;100.00
59608;BME280;45426;44.726;10.390;2023-04-15T04:16:13;99410.09;;;6.36;100.00
59608;BME280;45426;44.726;10.390;2023-04-15T04:18:38;99408.84;;;6.55;100.00
59608;BME280;45426;44.726;10.390;2023-04-15T04:21:04;99414.34;;;6.79;100.00
59608;BME280;45426;44.726;10.390;2023-04-15T04:23:29;99408.31;;;6.95;100.00
59608;BME280;45426;44.726;10.390;2023-04-15T04:25:55;99409.72;;;7.13;100.00
59608;BME280;45426;44.726;10.390;2023-04-15T04:28:20;99410.22;;;7.28;100.00
59608;BME280;45426;44.726;10.390;2023-04-15T04:30:46;99408.69;;;7.39;100.00
59608;BME280;45426;44.726;10.390;2023-04-15T04:33:11;99417.81;;;7.47;100.00
59608;BME280;45426;44.726;10.390;2023-04-15T04:35:37;99414.22;;;7.80;100.00
59608;BME280;45426;44.726;10.390;2023-04-15T04:38:03;99422.00;;;7.81;100.00
59608;BME280;45426;44.726;10.390;2023-04-15T04:40:29;99417.03;;;7.83;100.00
59608;BME280;45426;44.726;10.390;2023-04-15T04:42:54;99418.38;;;7.77;100.00
59608;BME280;45426;44.726;10.390;2023-04-15T04:45:20;99425.78;;;7.55;100.00
59608;BME280;45426;44.726;10.390;2023-04-15T04:47:45;99419.06;;;7.74;100.00
59608;BME280;45426;44.726;10.390;2023-04-15T04:50:12;99427.19;;;7.16;100.00
59608;BME280;45426;44.726;10.390;2023-04-15T04:52:37;99432.28;;;7.30;100.00
59608;BME280;45426;44.726;10.390;2023-04-15T04:55:04;99435.16;;;6.58;100.00
59608;BME280;45426;44.726;10.390;2023-04-15T04:57:29;99435.66;;;6.30;100.00
59608;BME280;45426;44.726;10.390;2023-04-15T04:59:55;99443.13;;;6.03;100.00
59608;BME280;45426;44.726;10.390;2023-04-15T05:02:20;99442.81;;;5.96;100.00
59608;BME280;45426;44.726;10.390;2023-04-15T05:04:46;99444.63;;;6.13;100.00
59608;BME280;45426;44.726;10.390;2023-04-15T05:07:11;99448.25;;;6.47;100.00
59608;BME280;45426;44.726;10.390;2023-04-15T05:09:37;99453.28;;;6.28;100.00
59608;BME280;45426;44.726;10.390;2023-04-15T05:12:03;99450.78;;;6.22;100.00
59608;BME280;45426;44.726;10.390;2023-04-15T05:14:28;99457.28;;;6.51;100.00
59608;BME280;45426;44.726;10.390;2023-04-15T05:16:54;99449.22;;;7.06;100.00
59608;BME280;45426;44.726;10.390;2023-04-15T05:19:20;99459.22;;;7.05;100.00
59608;BME280;45426;44.726;10.390;2023-04-15T05:21:45;99468.44;;;6.41;100.00
59608;BME280;45426;44.726;10.390;2023-04-15T05:24:11;99468.66;;;6.06;100.00
59608;BME280;45426;44.726;10.390;2023-04-15T05:26:36;99472.72;;;6.42;100.00
59608;BME280;45426;44.726;10.390;2023-04-15T05:29:01;99470.38;;;6.61;100.00
59608;BME280;45426;44.726;10.390;2023-04-15T05:31:27;99480.72;;;6.30;100.00
59608;BME280;45426;44.726;10.390;2023-04-15T05:33:52;99485.00;;;6.60;100.00
59608;BME280;45426;44.726;10.390;2023-04-15T05:36:18;99484.63;;;6.62;100.00
59608;BME280;45426;44.726;10.390;2023-04-15T05:38:43;99479.47;;;6.57;100.00
59608;BME280;45426;44.726;10.390;2023-04-15T05:41:09;99492.28;;;7.02;100.00
59608;BME280;45426;44.726;10.390;2023-04-15T05:43:34;99478.44;;;7.83;100.00
59608;BME280;45426;44.726;10.390;2023-04-15T05:46:00;99480.81;;;7.96;100.00
59608;BME280;45426;44.726;10.390;2023-04-15T05:48:25;99482.63;;;8.54;100.00
59608;BME280;45426;44.726;10.390;2023-04-15T05:50:51;99486.38;;;8.90;100.00
59608;BME280;45426;44.726;10.390;2023-04-15T05:53:16;99488.25;;;8.61;100.00
59608;BME280;45426;44.726;10.390;2023-04-15T05:55:42;99489.28;;;8.97;100.00
59608;BME280;45426;44.726;10.390;2023-04-15T05:58:07;99493.72;;;9.62;100.00
59608;BME280;45426;44.726;10.390;2023-04-15T06:00:33;99483.34;;;9.96;100.00
59608;BME280;45426;44.726;10.390;2023-04-15T06:02:58;99484.19;;;10.32;100.00
59608;BME280;45426;44.726;10.390;2023-04-15T06:05:24;99474.69;;;10.57;100.00
59608;BME280;45426;44.726;10.390;2023-04-15T06:07:50;99463.06;;;11.58;100.00
59608;BME280;45426;44.726;10.390;2023-04-15T06:10:15;99470.69;;;11.95;100.00
59608;BME280;45426;44.726;10.390;2023-04-15T06:12:40;99471.53;;;12.52;100.00
59608;BME280;45426;44.726;10.390;2023-04-15T06:15:06;99471.66;;;14.65;100.00
59608;BME280;45426;44.726;10.390;2023-04-15T06:17:35;99468.72;;;15.20;100.00
59608;BME280;45426;44.726;10.390;2023-04-15T06:20:00;99471.53;;;15.63;100.00
59608;BME280;45426;44.726;10.390;2023-04-15T06:22:25;99473.56;;;15.81;100.00
59608;BME280;45426;44.726;10.390;2023-04-15T06:24:51;99473.94;;;16.26;100.00
59608;BME280;45426;44.726;10.390;2023-04-15T06:27:17;99476.19;;;16.71;100.00
59608;BME280;45426;44.726;10.390;2023-04-15T06:29:42;99473.16;;;17.39;100.00
59608;BME280;45426;44.726;10.390;2023-04-15T06:32:08;99481.63;;;17.66;100.00
59608;BME280;45426;44.726;10.390;2023-04-15T06:34:34;99481.81;;;19.11;100.00
59608;BME280;45426;44.726;10.390;2023-04-15T06:36:59;99476.66;;;18.82;100.00
59608;BME280;45426;44.726;10.390;2023-04-15T06:39:25;99475.19;;;19.63;100.00
59608;BME280;45426;44.726;10.390;2023-04-15T06:41:51;99478.72;;;19.90;100.00
59608;BME280;45426;44.726;10.390;2023-04-15T06:44:16;99474.16;;;24.51;100.00
59608;BME280;45426;44.726;10.390;2023-04-15T06:46:43;99471.44;;;25.76;87.78
59608;BME280;45426;44.726;10.390;2023-04-15T06:49:08;99478.59;;;29.59;69.90
59608;BME280;45426;44.726;10.390;2023-04-15T06:51:36;99483.16;;;24.77;75.18
59608;BME280;45426;44.726;10.390;2023-04-15T06:54:03;99475.81;;;27.83;72.88
59608;BME280;45426;44.726;10.390;2023-04-15T06:56:31;99473.00;;;29.95;66.02
59608;BME280;45426;44.726;10.390;2023-04-15T06:58:56;99475.22;;;29.91;60.00
59608;BME280;45426;44.726;10.390;2023-04-15T07:01:22;99476.31;;;29.43;57.30
59608;BME280;45426;44.726;10.390;2023-04-15T07:03:47;99475.25;;;31.10;55.41
59608;BME280;45426;44.726;10.390;2023-04-15T07:06:12;99476.31;;;28.83;57.15
59608;BME280;45426;44.726;10.390;2023-04-15T07:08:38;99486.19;;;28.16;56.38
59608;BME280;45426;44.726;10.390;2023-04-15T07:11:03;99478.47;;;29.69;56.48
59608;BME280;45426;44.726;10.390;2023-04-15T07:13:30;99485.75;;;27.50;55.91
59608;BME280;45426;44.726;10.390;2023-04-15T07:15:56;99470.47;;;29.97;58.10
59608;BME280;45426;44.726;10.390;2023-04-15T07:18:21;99483.47;;;26.51;59.29
59608;BME280;45426;44.726;10.390;2023-04-15T07:20:47;99484.06;;;28.50;58.83
59608;BME280;45426;44.726;10.390;2023-04-15T07:23:12;99484.75;;;30.19;58.03
59608;BME280;45426;44.726;10.390;2023-04-15T07:25:38;99483.47;;;28.99;59.36
59608;BME280;45426;44.726;10.390;2023-04-15T07:28:03;99490.34;;;32.54;52.85
59608;BME280;45426;44.726;10.390;2023-04-15T07:30:29;99488.03;;;32.52;50.03
59608;BME280;45426;44.726;10.390;2023-04-15T07:32:54;99492.31;;;29.42;53.36
59608;BME280;45426;44.726;10.390;2023-04-15T07:35:20;99493.22;;;30.05;53.49
59608;BME280;45426;44.726;10.390;2023-04-15T07:37:47;99495.38;;;30.56;52.71
59608;BME280;45426;44.726;10.390;2023-04-15T07:40:12;99509.69;;;27.76;55.59
59608;BME280;45426;44.726;10.390;2023-04-15T07:42:39;99490.00;;;32.18;55.46
59608;BME280;45426;44.726;10.390;2023-04-15T07:45:05;99493.13;;;32.37;51.49
59608;BME280;45426;44.726;10.390;2023-04-15T07:47:31;99488.31;;;31.94;51.19
59608;BME280;45426;44.726;10.390;2023-04-15T07:49:56;99490.25;;;32.14;51.43
59608;BME280;45426;44.726;10.390;2023-04-15T07:52:22;99488.09;;;32.63;50.34
59608;BME280;45426;44.726;10.390;2023-04-15T07:54:47;99487.88;;;33.01;51.57
59608;BME280;45426;44.726;10.390;2023-04-15T07:57:12;99488.59;;;32.62;49.03
59608;BME280;45426;44.726;10.390;2023-04-15T07:59:38;99481.22;;;31.56;49.97
59608;BME280;45426;44.726;10.390;2023-04-15T08:02:03;99488.88;;;26.36;51.33
59608;BME280;45426;44.726;10.390;2023-04-15T08:04:29;99476.13;;;30.44;57.82
59608;BME280;45426;44.726;10.390;2023-04-15T08:06:55;99479.41;;;31.52;53.71
59608;BME280;45426;44.726;10.390;2023-04-15T08:09:20;99477.56;;;31.87;52.24
59608;BME280;45426;44.726;10.390;2023-04-15T08:11:48;99489.13;;;25.92;55.79
59608;BME280;45426;44.726;10.390;2023-04-15T08:14:14;99493.69;;;25.67;69.21
59608;BME280;45426;44.726;10.390;2023-04-15T08:16:39;99498.00;;;21.58;76.10
59608;BME280;45426;44.726;10.390;2023-04-15T08:19:05;99479.13;;;26.04;69.54
59608;BME280;45426;44.726;10.390;2023-04-15T08:21:31;99484.09;;;26.37;63.37
59608;BME280;45426;44.726;10.390;2023-04-15T08:23:57;99485.72;;;25.16;66.50
59608;BME280;45426;44.726;10.390;2023-04-15T08:26:22;99485.56;;;27.63;61.60
59608;BME280;45426;44.726;10.390;2023-04-15T08:28:48;99484.84;;;26.92;61.99
59608;BME280;45426;44.726;10.390;2023-04-15T08:31:15;99487.94;;;26.21;65.77
59608;BME280;45426;44.726;10.390;2023-04-15T08:33:41;99489.84;;;23.20;100.00
59608;BME280;45426;44.726;10.390;2023-04-15T08:36:07;99492.56;;;22.36;100.00
59608;BME280;45426;44.726;10.390;2023-04-15T08:38:33;99477.09;;;25.54;84.74
59608;BME280;45426;44.726;10.390;2023-04-15T08:41:03;99484.47;;;21.96;100.00
59608;BME280;45426;44.726;10.390;2023-04-15T08:43:38;99485.19;;;20.04;100.00
59608;BME280;45426;44.726;10.390;2023-04-15T08:46:08;99496.97;;;18.12;100.00
59608;BME280;45426;44.726;10.390;2023-04-15T08:48:35;99488.50;;;19.68;100.00
59608;BME280;45426;44.726;10.390;2023-04-15T08:51:03;99489.03;;;20.10;100.00
59608;BME280;45426;44.726;10.390;2023-04-15T08:53:29;99489.78;;;19.59;100.00
59608;BME280;45426;44.726;10.390;2023-04-15T08:55:56;99490.72;;;20.04;100.00
59608;BME280;45426;44.726;10.390;2023-04-15T08:58:23;99487.31;;;18.76;100.00
59608;BME280;45426;44.726;10.390;2023-04-15T09:00:49;99491.31;;;17.85;100.00
59608;BME280;45426;44.726;10.390;2023-04-15T09:03:15;99483.47;;;19.05;100.00
59608;BME280;45426;44.726;10.390;2023-04-15T09:05:41;99482.41;;;19.26;100.00
59608;BME280;45426;44.726;10.390;2023-04-15T09:08:07;99490.44;;;18.78;100.00
59608;BME280;45426;44.726;10.390;2023-04-15T09:10:33;99491.91;;;18.52;100.00
59608;BME280;45426;44.726;10.390;2023-04-15T09:12:59;99488.75;;;17.56;100.00
59608;BME280;45426;44.726;10.390;2023-04-15T09:15:26;99482.94;;;18.83;100.00
59608;BME280;45426;44.726;10.390;2023-04-15T09:17:54;99481.66;;;19.22;100.00
59608;BME280;45426;44.726;10.390;2023-04-15T09:20:19;99481.47;;;19.36;100.00
59608;BME280;45426;44.726;10.390;2023-04-15T09:22:47;99475.84;;;19.97;100.00
59608;BME280;45426;44.726;10.390;2023-04-15T09:27:48;99476.81;;;18.64;100.00
59608;BME280;45426;44.726;10.390;2023-04-15T09:30:14;99475.84;;;17.50;100.00
59608;BME280;45426;44.726;10.390;2023-04-15T09:32:57;99474.31;;;18.77;100.00
59608;BME280;45426;44.726;10.390;2023-04-15T09:35:24;99472.16;;;19.26;100.00
59608;BME280;45426;44.726;10.390;2023-04-15T09:37:50;99458.53;;;19.73;100.00
59608;BME280;45426;44.726;10.390;2023-04-15T09:40:35;99460.97;;;19.91;100.00
59608;BME280;45426;44.726;10.390;2023-04-15T09:43:02;99458.66;;;19.63;100.00
59608;BME280;45426;44.726;10.390;2023-04-15T09:45:28;99454.97;;;19.18;100.00
59608;BME280;45426;44.726;10.390;2023-04-15T09:47:53;99461.16;;;18.95;100.00
59608;BME280;45426;44.726;10.390;2023-04-15T09:50:20;99462.41;;;18.53;100.00
59608;BME280;45426;44.726;10.390;2023-04-15T09:52:46;99451.22;;;19.59;100.00
59608;BME280;45426;44.726;10.390;2023-04-15T09:55:13;99457.97;;;17.79;100.00
59608;BME280;45426;44.726;10.390;2023-04-15T09:57:39;99443.06;;;19.52;100.00
59608;BME280;45426;44.726;10.390;2023-04-15T10:00:07;99446.91;;;19.86;100.00
59608;BME280;45426;44.726;10.390;2023-04-15T10:02:36;99454.22;;;18.46;100.00
59608;BME280;45426;44.726;10.390;2023-04-15T10:05:01;99442.03;;;18.85;100.00
59608;BME280;45426;44.726;10.390;2023-04-15T10:07:27;99445.41;;;19.27;100.00
59608;BME280;45426;44.726;10.390;2023-04-15T10:09:53;99453.47;;;18.03;100.00
59608;BME280;45426;44.726;10.390;2023-04-15T10:12:19;99446.44;;;19.09;100.00
59608;BME280;45426;44.726;10.390;2023-04-15T10:14:56;99442.41;;;18.87;100.00
59608;BME280;45426;44.726;10.390;2023-04-15T10:17:26;99429.69;;;18.96;100.00
59608;BME280;45426;44.726;10.390;2023-04-15T10:19:53;99436.06;;;18.90;100.00
59608;BME280;45426;44.726;10.390;2023-04-15T10:22:19;99430.75;;;19.33;100.00
59608;BME280;45426;44.726;10.390;2023-04-15T10:24:46;99427.47;;;19.93;100.00
59608;BME280;45426;44.726;10.390;2023-04-15T10:27:11;99420.44;;;18.79;100.00
59608;BME280;45426;44.726;10.390;2023-04-15T10:29:37;99413.22;;;19.74;100.00
59608;BME280;45426;44.726;10.390;2023-04-15T10:32:03;99415.81;;;20.09;100.00
59608;BME280;45426;44.726;10.390;2023-04-15T10:34:29;99409.13;;;19.59;100.00
59608;BME280;45426;44.726;10.390;2023-04-15T10:36:57;99413.16;;;20.02;100.00
59608;BME280;45426;44.726;10.390;2023-04-15T10:39:39;99417.78;;;20.28;100.00
59608;BME280;45426;44.726;10.390;2023-04-15T10:42:13;99415.06;;;20.48;100.00
59608;BME280;45426;44.726;10.390;2023-04-15T10:44:47;99406.47;;;19.79;100.00
59608;BME280;45426;44.726;10.390;2023-04-15T10:47:18;99409.69;;;19.97;100.00
59608;BME280;45426;44.726;10.390;2023-04-15T10:49:51;99405.19;;;20.27;100.00
59608;BME280;45426;44.726;10.390;2023-04-15T10:52:23;99399.41;;;20.22;100.00
59608;BME280;45426;44.726;10.390;2023-04-15T10:54:49;99398.28;;;20.19;100.00
59608;BME280;45426;44.726;10.390;2023-04-15T10:57:20;99397.34;;;20.46;100.00
59608;BME280;45426;44.726;10.390;2023-04-15T11:00:00;99398.88;;;19.59;100.00
59608;BME280;45426;44.726;10.390;2023-04-15T11:05:19;99393.09;;;18.99;100.00
59608;BME280;45426;44.726;10.390;2023-04-15T11:12:52;99391.19;;;19.98;100.00
59608;BME280;45426;44.726;10.390;2023-04-15T11:18:15;99386.19;;;21.09;100.00
59608;BME280;45426;44.726;10.390;2023-04-15T11:20:42;99390.41;;;20.17;100.00
59608;BME280;45426;44.726;10.390;2023-04-15T11:23:11;99382.50;;;20.60;100.00
59608;BME280;45426;44.726;10.390;2023-04-15T11:25:37;99379.13;;;20.52;100.00
59608;BME280;45426;44.726;10.390;2023-04-15T11:28:03;99380.38;;;20.27;100.00
59608;BME280;45426;44.726;10.390;2023-04-15T11:30:31;99379.47;;;20.74;100.00
59608;BME280;45426;44.726;10.390;2023-04-15T11:33:02;99381.81;;;20.35;100.00
59608;BME280;45426;44.726;10.390;2023-04-15T11:35:28;99378.28;;;19.44;100.00
59608;BME280;45426;44.726;10.390;2023-04-15T11:37:54;99384.50;;;18.29;100.00
59608;BME280;45426;44.726;10.390;2023-04-15T11:40:24;99378.16;;;19.98;100.00
59608;BME280;45426;44.726;10.390;2023-04-15T11:45:33;99370.88;;;20.88;100.00
59608;BME280;45426;44.726;10.390;2023-04-15T11:48:09;99376.97;;;20.20;100.00
59608;BME280;45426;44.726;10.390;2023-04-15T11:50:37;99374.22;;;20.00;100.00
59608;BME280;45426;44.726;10.390;2023-04-15T11:53:05;99369.44;;;21.00;100.00
59608;BME280;45426;44.726;10.390;2023-04-15T11:55:41;99366.63;;;20.67;100.00
59608;BME280;45426;44.726;10.390;2023-04-15T12:00:36;99366.59;;;20.07;100.00
59608;BME280;45426;44.726;10.390;2023-04-15T12:03:12;99363.41;;;21.05;100.00
59608;BME280;45426;44.726;10.390;2023-04-15T12:06:07;99367.59;;;20.17;100.00
59608;BME280;45426;44.726;10.390;2023-04-15T12:14:20;99363.56;;;20.82;100.00
59608;BME280;45426;44.726;10.390;2023-04-15T12:16:48;99358.59;;;21.42;100.00
59608;BME280;45426;44.726;10.390;2023-04-15T12:19:17;99359.91;;;21.21;100.00
59608;BME280;45426;44.726;10.390;2023-04-15T12:21:47;99356.88;;;21.16;100.00
59608;BME280;45426;44.726;10.390;2023-04-15T12:24:12;99355.22;;;21.18;100.00
59608;BME280;45426;44.726;10.390;2023-04-15T12:26:47;99351.09;;;21.10;100.00
59608;BME280;45426;44.726;10.390;2023-04-15T12:29:14;99361.00;;;20.71;100.00
59608;BME280;45426;44.726;10.390;2023-04-15T12:34:18;99355.00;;;20.56;100.00
59608;BME280;45426;44.726;10.390;2023-04-15T12:36:49;99347.06;;;20.58;100.00
59608;BME280;45426;44.726;10.390;2023-04-15T12:39:15;99353.00;;;20.36;100.00
59608;BME280;45426;44.726;10.390;2023-04-15T12:41:40;99353.47;;;20.35;100.00
59608;BME280;45426;44.726;10.390;2023-04-15T12:44:06;99351.72;;;20.81;100.00
59608;BME280;45426;44.726;10.390;2023-04-15T12:46:31;99351.00;;;20.57;100.00
59608;BME280;45426;44.726;10.390;2023-04-15T12:48:57;99351.28;;;19.08;100.00
59608;BME280;45426;44.726;10.390;2023-04-15T12:51:23;99357.81;;;19.92;100.00
59608;BME280;45426;44.726;10.390;2023-04-15T12:53:49;99348.56;;;19.32;100.00
59608;BME280;45426;44.726;10.390;2023-04-15T12:56:15;99360.28;;;20.07;100.00
59608;BME280;45426;44.726;10.390;2023-04-15T12:58:43;99352.16;;;20.40;100.00
59608;BME280;45426;44.726;10.390;2023-04-15T13:01:09;99355.91;;;20.69;100.00
59608;BME280;45426;44.726;10.390;2023-04-15T13:03:35;99356.00;;;20.66;100.00
59608;BME280;45426;44.726;10.390;2023-04-15T13:06:00;99361.97;;;20.81;100.00
59608;BME280;45426;44.726;10.390;2023-04-15T13:08:28;99365.72;;;20.10;100.00